Time;durP1;ratioP1;P1;durP2;ratioP2;P2;SDS_P1;SDS_P2;PMS_P1;PMS_P2;Temp;Humidity;BMP_temperature;BMP_pressure;BME280_temperature;BME280_humidity;BME280_pressure;Samples;Min_cycle;Max_cycle;Signal;HPM_P1;HPM_P2
2024/01/10 00:01:35;;;;;;;11.70;5.43;;;;;;;-3.24;50.28;102807.50;3612941;39;20062;-61
2024/01/10 00:04:01;;;;;;;9.65;4.53;;;;;;;-3.18;50.32;102820.81;3613161;39;20082;-61
2024/01/10 00:06:26;;;;;;;5.88;3.70;;;;;;;-3.39;50.20;102796.59;3611469;39;20079;-61
2024/01/10 00:08:52;;;;;;;8.65;4.13;;;;;;;-3.22;50.89;102818.94;3611260;39;20058;-61
2024/01/10 00:11:18;;;;;;;5.95;4.05;;;;;;;-3.25;50.56;102818.88;3611305;39;20051;-63
2024/01/10 00:13:43;;;;;;;4.30;3.30;;;;;;;-3.51;51.05;102784.88;3612068;39;20303;-64
2024/01/10 00:16:13;;;;;;;6.85;3.83;;;;;;;-3.33;51.08;102812.50;3611959;39;20062;-63
2024/01/10 00:18:40;;;;;;;6.40;3.70;;;;;;;-3.34;50.90;102808.97;3613015;39;20143;-61
2024/01/10 00:21:06;;;;;;;7.07;3.70;;;;;;;-3.34;51.18;102805.47;3613174;39;20328;-61
2024/01/10 00:23:32;;;;;;;8.13;3.63;;;;;;;-3.38;51.41;102811.50;3612670;39;20094;-62
2024/01/10 00:25:57;;;;;;;6.13;3.83;;;;;;;-3.41;51.30;102800.91;3601710;39;20058;-62
2024/01/10 00:28:23;;;;;;;6.90;3.97;;;;;;;-3.43;51.34;102800.84;3607076;39;20059;-62
2024/01/10 00:30:49;;;;;;;6.10;3.78;;;;;;;-3.43;51.73;102806.09;3613557;39;20059;-62
2024/01/10 00:33:15;;;;;;;5.90;3.55;;;;;;;-3.46;51.93;102802.50;3609754;39;20383;-62
2024/01/10 00:35:41;;;;;;;5.90;3.97;;;;;;;-3.50;52.04;102791.91;3608821;39;20063;-62
2024/01/10 00:38:06;;;;;;;7.07;3.97;;;;;;;-3.48;52.05;102793.69;3612608;39;20054;-62
2024/01/10 00:40:32;;;;;;;5.72;3.40;;;;;;;-3.51;51.94;102811.16;3613284;39;20062;-62
2024/01/10 00:42:58;;;;;;;5.38;3.72;;;;;;;-3.55;51.81;102804.03;3612300;39;20067;-62
2024/01/10 00:45:24;;;;;;;7.30;3.80;;;;;;;-3.78;52.03;102773.56;3612540;39;20410;-62
2024/01/10 00:47:50;;;;;;;5.78;3.45;;;;;;;-3.59;52.07;102804.78;3611587;39;20368;-62
2024/01/10 00:50:16;;;;;;;6.15;4.05;;;;;;;-3.73;52.24;102785.13;3609698;39;20066;-62
2024/01/10 00:52:43;;;;;;;5.80;3.88;;;;;;;-3.65;52.65;102807.22;3612656;39;20204;-62
2024/01/10 00:55:09;;;;;;;5.80;3.85;;;;;;;-3.65;53.00;102804.59;3611792;39;20094;-62
2024/01/10 00:57:34;;;;;;;7.80;4.45;;;;;;;-3.68;52.96;102801.88;3611989;39;20054;-62
2024/01/10 01:00:00;;;;;;;7.85;4.25;;;;;;;-3.70;52.74;102798.34;3613247;39;20067;-62
2024/01/10 01:02:26;;;;;;;6.60;4.30;;;;;;;-3.73;52.77;102806.13;3613256;39;20069;-62
2024/01/10 01:04:51;;;;;;;10.50;4.40;;;;;;;-3.74;53.10;102796.50;3613206;39;20358;-62
2024/01/10 01:07:17;;;;;;;6.18;4.35;;;;;;;-3.77;53.72;102801.66;3610687;39;20061;-62
2024/01/10 01:09:42;;;;;;;8.02;4.57;;;;;;;-3.77;53.66;102796.41;3609153;39;20062;-62
2024/01/10 01:12:08;;;;;;;6.05;4.13;;;;;;;-3.83;53.87;102791.84;3612603;39;20050;-62
2024/01/10 01:14:33;;;;;;;5.53;3.80;;;;;;;-3.81;54.08;102798.00;3609802;39;20090;-62
2024/01/10 01:16:59;;;;;;;9.15;3.97;;;;;;;-3.82;53.89;102792.72;3610584;39;20062;-62
2024/01/10 01:19:25;;;;;;;9.27;4.45;;;;;;;-3.84;53.75;102790.03;3609629;39;20067;-62
2024/01/10 01:21:51;;;;;;;7.35;4.13;;;;;;;-3.85;53.61;102787.38;3607824;39;20050;-62
2024/01/10 01:24:16;;;;;;;6.90;3.95;;;;;;;-3.87;53.56;102789.06;3610267;39;20053;-62
2024/01/10 01:26:42;;;;;;;6.25;3.95;;;;;;;-3.86;53.73;102801.38;3610368;39;20402;-62
2024/01/10 01:29:08;;;;;;;4.82;3.70;;;;;;;-3.87;53.78;102791.69;3602060;39;20105;-62
2024/01/10 01:31:34;;;;;;;8.27;3.97;;;;;;;-3.88;53.62;102787.31;3610668;39;20050;-62
2024/01/10 01:33:59;;;;;;;6.18;3.92;;;;;;;-3.90;53.93;102791.59;3611969;39;20051;-62
2024/01/10 01:36:25;;;;;;;6.70;4.20;;;;;;;-4.02;54.02;102774.66;3612205;39;20143;-62
2024/01/10 01:38:51;;;;;;;8.27;4.60;;;;;;;-3.93;54.29;102786.25;3611110;39;20091;-62
2024/01/10 01:41:17;;;;;;;7.10;4.13;;;;;;;-3.93;54.60;102783.63;3611888;39;20504;-62
2024/01/10 01:43:44;;;;;;;5.50;3.67;;;;;;;-4.10;54.09;102755.16;3612707;39;20318;-62
2024/01/10 01:46:11;;;;;;;6.15;3.80;;;;;;;-4.30;54.65;102722.16;3611212;39;20128;-61
2024/01/10 01:48:37;;;;;;;8.27;4.00;;;;;;;-3.95;54.51;102785.34;3607487;39;20051;-62
2024/01/10 01:51:07;;;;;;;9.00;4.70;;;;;;;-3.97;54.75;102795.78;3612170;39;20427;-62
2024/01/10 01:53:37;;;;;;;6.25;4.35;;;;;;;-3.98;54.40;102784.41;3612656;39;20086;-62
2024/01/10 01:56:07;;;;;;;7.47;4.50;;;;;;;-4.02;54.80;102774.66;3612643;39;20090;-62
2024/01/10 01:58:34;;;;;;;6.60;3.90;;;;;;;-4.02;54.92;102777.28;3612331;39;20047;-62
2024/01/10 02:01:03;;;;;;;7.38;4.00;;;;;;;-4.08;54.60;102768.34;3609184;39;20043;-63
2024/01/10 02:03:33;;;;;;;8.57;4.13;;;;;;;-3.99;54.69;102785.25;3610106;39;20350;-62
2024/01/10 02:06:03;;;;;;;8.60;4.15;;;;;;;-4.05;54.74;102768.44;3612060;39;20059;-62
2024/01/10 02:08:31;;;;;;;8.18;4.10;;;;;;;-4.03;54.67;102778.13;3608421;39;20053;-62
2024/01/10 02:10:57;;;;;;;7.57;4.20;;;;;;;-4.00;54.34;102777.31;3612317;39;20059;-63
2024/01/10 02:13:24;;;;;;;7.68;4.20;;;;;;;-4.05;54.30;102769.31;3608673;39;20055;-62
2024/01/10 02:15:51;;;;;;;5.75;4.00;;;;;;;-4.03;54.90;102779.84;3613037;39;20047;-62
2024/01/10 02:18:16;;;;;;;6.65;3.72;;;;;;;-4.05;54.89;102774.56;3600305;39;20055;-62
2024/01/10 02:20:45;;;;;;;5.78;3.75;;;;;;;-4.05;54.89;102771.94;3610337;39;20489;-62
2024/01/10 02:23:11;;;;;;;7.55;4.30;;;;;;;-4.07;55.25;102765.75;3611981;39;20086;-62
2024/01/10 02:25:39;;;;;;;10.25;4.47;;;;;;;-4.05;55.30;102774.56;3612556;39;20076;-62
2024/01/10 02:28:05;;;;;;;5.20;3.67;;;;;;;-4.08;55.17;102758.72;3610982;39;20058;-62
2024/01/10 02:30:30;;;;;;;7.72;4.13;;;;;;;-4.09;55.27;102764.81;3610757;39;20074;-62
2024/01/10 02:32:56;;;;;;;7.15;4.45;;;;;;;-4.53;55.39;102685.63;3610885;39;20054;-62
2024/01/10 02:35:21;;;;;;;6.80;4.50;;;;;;;-4.08;55.31;102769.22;3610569;39;20334;-62
2024/01/10 02:37:49;;;;;;;5.80;3.97;;;;;;;-4.09;55.57;102770.06;3611843;39;20323;-62
2024/01/10 02:40:16;;;;;;;6.90;4.00;;;;;;;-4.07;55.54;102767.47;3610331;39;20055;-62
2024/01/10 02:42:41;;;;;;;7.97;4.10;;;;;;;-4.17;55.43;102749.69;3609436;39;20059;-62
2024/01/10 02:45:07;;;;;;;6.00;3.90;;;;;;;-4.07;55.69;102756.97;3601114;39;20280;-62
2024/01/10 02:47:33;;;;;;;11.63;4.90;;;;;;;-4.09;55.45;102761.28;3612749;39;20067;-62
2024/01/10 02:49:59;;;;;;;7.13;3.92;;;;;;;-4.15;55.27;102747.97;3608417;39;20063;-62
2024/01/10 02:52:24;;;;;;;6.30;3.90;;;;;;;-4.12;55.54;102751.59;3608126;39;21554;-62
2024/01/10 02:54:50;;;;;;;7.82;4.30;;;;;;;-4.11;55.85;102745.50;3610799;39;20061;-62
2024/01/10 02:57:15;;;;;;;7.10;3.70;;;;;;;-4.10;55.98;102751.63;3609970;39;20047;-63
2024/01/10 02:59:41;;;;;;;9.43;4.25;;;;;;;-4.06;55.73;102751.78;3611168;39;20085;-62
2024/01/10 03:02:07;;;;;;;7.20;4.00;;;;;;;-4.40;55.47;102692.13;3612124;39;20495;-62
2024/01/10 03:04:32;;;;;;;7.57;4.13;;;;;;;-4.06;55.82;102754.41;3611338;39;20095;-62
2024/01/10 03:06:58;;;;;;;6.25;3.58;;;;;;;-4.02;55.62;102747.50;3612026;39;20055;-62
2024/01/10 03:09:23;;;;;;;7.25;3.90;;;;;;;-4.01;55.45;102750.16;3609876;39;20362;-62
2024/01/10 03:11:49;;;;;;;10.73;4.35;;;;;;;-4.01;56.17;102739.66;3610731;39;20102;-62
2024/01/10 03:14:15;;;;;;;6.95;4.15;;;;;;;-4.01;56.20;102744.91;3608291;39;20055;-62
2024/01/10 03:16:40;;;;;;;6.50;3.97;;;;;;;-4.01;56.06;102739.66;3611662;39;20054;-63
2024/01/10 03:19:06;;;;;;;7.53;3.92;;;;;;;-4.02;56.14;102737.00;3611606;39;20216;-62
2024/01/10 03:21:32;;;;;;;9.43;4.30;;;;;;;-4.04;55.80;102734.31;3609273;39;20055;-62
2024/01/10 03:24:00;;;;;;;8.43;4.30;;;;;;;-4.12;55.76;102720.09;3610820;39;20059;-62
2024/01/10 03:26:27;;;;;;;7.68;4.18;;;;;;;-4.02;56.14;102730.00;3608880;39;20054;-62
2024/01/10 03:28:53;;;;;;;8.13;4.07;;;;;;;-4.03;56.29;102730.88;3610856;39;20120;-62
2024/01/10 03:31:20;;;;;;;6.00;3.90;;;;;;;-4.07;56.41;102723.72;3610345;39;20059;-61
2024/01/10 03:33:45;;;;;;;6.43;3.78;;;;;;;-4.05;55.98;102729.91;3607639;39;20079;-61
2024/01/10 03:36:17;;;;;;;5.82;3.70;;;;;;;-4.12;56.11;102725.34;3608426;39;20567;-61
2024/01/10 03:38:44;;;;;;;6.90;3.78;;;;;;;-4.04;56.32;102722.94;3608592;39;20058;-61
2024/01/10 03:41:20;;;;;;;7.53;4.18;;;;;;;-4.05;56.54;102724.66;3611134;39;20043;-61
2024/01/10 03:43:47;;;;;;;6.22;3.95;;;;;;;-4.04;55.97;102721.19;3610627;39;20047;-61
2024/01/10 03:46:13;;;;;;;7.95;4.07;;;;;;;-4.05;55.70;102705.41;3611237;39;20053;-61
2024/01/10 03:48:57;;;;;;;7.07;4.07;;;;;;;-4.07;56.53;102720.22;3612091;39;20369;-62
2024/01/10 03:51:23;;;;;;;7.18;3.90;;;;;;;-4.11;56.28;102713.97;3613047;39;20123;-61
2024/01/10 03:53:49;;;;;;;6.97;4.00;;;;;;;-4.10;57.10;102718.38;3614094;39;20058;-61
2024/01/10 03:56:15;;;;;;;9.52;5.10;;;;;;;-4.11;56.78;102705.22;3612432;39;20055;-61
2024/01/10 03:58:40;;;;;;;9.02;4.95;;;;;;;-4.09;56.41;102698.25;3612501;39;20427;-61
2024/01/10 04:01:09;;;;;;;8.48;4.60;;;;;;;-4.09;56.25;102700.88;3613322;39;20051;-61
2024/01/10 04:03:35;;;;;;;6.60;4.00;;;;;;;-4.11;56.32;102692.09;3613132;39;20146;-61
2024/01/10 04:06:02;;;;;;;6.10;3.80;;;;;;;-4.09;56.34;102699.16;3612546;39;20054;-61
2024/01/10 04:08:29;;;;;;;7.30;4.18;;;;;;;-4.13;56.05;102694.66;3610468;39;20150;-61
2024/01/10 04:10:54;;;;;;;8.57;3.92;;;;;;;-4.10;56.07;102694.75;3612475;39;20063;-61
2024/01/10 04:13:20;;;;;;;8.90;4.72;;;;;;;-4.09;56.62;102693.91;3609962;39;20507;-62
2024/01/10 04:15:46;;;;;;;6.20;3.83;;;;;;;-4.12;55.83;102691.22;3611574;39;20051;-62
2024/01/10 04:18:12;;;;;;;4.63;3.45;;;;;;;-4.10;56.35;102684.25;3612212;39;20062;-62
2024/01/10 04:20:37;;;;;;;5.65;3.60;;;;;;;-4.08;55.95;102690.44;3612293;39;20067;-63
2024/01/10 04:23:03;;;;;;;5.50;4.13;;;;;;;-4.07;56.24;102691.31;3613442;39;20042;-63
2024/01/10 04:25:28;;;;;;;6.88;3.78;;;;;;;-4.17;56.15;102682.28;3601165;39;20049;-63
2024/01/10 04:27:55;;;;;;;7.38;3.70;;;;;;;-4.10;56.79;102702.63;3611859;39;20091;-63
2024/01/10 04:30:21;;;;;;;5.97;3.92;;;;;;;-4.11;56.67;102695.59;3612242;39;20058;-62
2024/01/10 04:32:46;;;;;;;5.70;3.65;;;;;;;-4.11;57.05;102689.47;3611362;39;20346;-63
2024/01/10 04:35:12;;;;;;;7.55;3.88;;;;;;;-4.25;56.81;102668.97;3608921;39;20058;-63
2024/01/10 04:37:37;;;;;;;7.22;4.00;;;;;;;-4.24;56.79;102667.22;3611490;39;20127;-63
2024/01/10 04:40:04;;;;;;;6.70;4.03;;;;;;;-4.16;56.83;102696.31;3612773;39;20062;-63
2024/01/10 04:42:30;;;;;;;7.88;3.88;;;;;;;-4.16;56.50;102697.19;3611928;39;20055;-62
2024/01/10 04:44:56;;;;;;;7.75;3.95;;;;;;;-4.18;56.95;102688.41;3613402;39;20420;-63
2024/01/10 04:47:21;;;;;;;7.00;4.03;;;;;;;-4.18;56.72;102687.50;3610325;39;20047;-62
2024/01/10 04:49:47;;;;;;;7.25;4.47;;;;;;;-4.18;56.78;102693.66;3612367;39;20057;-63
2024/01/10 04:52:12;;;;;;;6.57;4.15;;;;;;;-4.19;57.25;102697.09;3612512;39;20331;-63
2024/01/10 04:54:38;;;;;;;9.77;4.25;;;;;;;-4.25;57.06;102676.84;3611180;39;20062;-63
2024/01/10 04:57:04;;;;;;;9.52;4.25;;;;;;;-4.18;57.07;102679.63;3612345;39;20101;-63
2024/01/10 04:59:30;;;;;;;6.88;4.15;;;;;;;-4.22;57.10;102681.25;3612924;39;20300;-63
2024/01/10 05:01:56;;;;;;;7.43;3.92;;;;;;;-4.23;57.38;102692.63;3611240;39;20047;-61
2024/01/10 05:04:21;;;;;;;8.27;4.55;;;;;;;-4.19;57.55;102678.72;3610605;39;20046;-60
2024/01/10 05:06:47;;;;;;;7.57;4.13;;;;;;;-4.16;56.93;102675.31;3611846;39;20058;-61
2024/01/10 05:09:13;;;;;;;6.78;3.97;;;;;;;-4.20;56.98;102677.84;3612347;39;20059;-62
2024/01/10 05:11:39;;;;;;;6.30;4.03;;;;;;;-4.22;57.51;102673.38;3610301;39;20138;-61
2024/01/10 05:14:05;;;;;;;7.13;3.97;;;;;;;-4.16;57.29;102681.44;3610279;39;20130;-63
2024/01/10 05:16:31;;;;;;;8.80;4.32;;;;;;;-4.15;57.31;102675.38;3610012;39;20054;-61
2024/01/10 05:19:00;;;;;;;8.05;4.10;;;;;;;-4.16;57.04;102670.03;3611668;39;20069;-61
2024/01/10 05:21:26;;;;;;;6.20;3.60;;;;;;;-4.18;57.27;102682.25;3611264;39;20054;-61
2024/01/10 05:23:52;;;;;;;7.07;4.20;;;;;;;-4.20;57.20;102679.56;3612028;39;20268;-61
2024/01/10 05:26:17;;;;;;;7.10;4.00;;;;;;;-4.24;57.16;102675.97;3612451;39;20058;-61
2024/01/10 05:28:43;;;;;;;9.57;4.43;;;;;;;-4.25;57.38;102671.59;3609537;39;20063;-61
2024/01/10 05:31:08;;;;;;;7.10;4.30;;;;;;;-4.22;57.61;102682.19;3608843;39;21483;-61
2024/01/10 05:33:34;;;;;;;8.35;4.43;;;;;;;-4.22;57.71;102678.63;3609642;39;20046;-61
2024/01/10 05:36:00;;;;;;;6.50;4.05;;;;;;;-4.23;58.03;102684.75;3608570;39;20058;-61
2024/01/10 05:38:25;;;;;;;10.48;4.65;;;;;;;-4.23;57.75;102677.75;3611143;39;20059;-61
2024/01/10 05:40:51;;;;;;;8.43;4.03;;;;;;;-4.38;57.66;102666.81;3611661;39;20065;-64
2024/01/10 05:43:17;;;;;;;7.18;4.10;;;;;;;-4.22;57.83;102689.13;3612851;39;20275;-61
2024/01/10 05:45:43;;;;;;;9.20;3.97;;;;;;;-4.27;58.18;102670.63;3610423;39;20446;-61
2024/01/10 05:48:08;;;;;;;12.27;5.85;;;;;;;-4.29;58.42;102661.81;3612131;39;20155;-60
2024/01/10 05:50:34;;;;;;;6.75;4.22;;;;;;;-4.24;58.03;102688.22;3611361;39;20058;-61
2024/01/10 05:52:59;;;;;;;6.95;3.90;;;;;;;-4.29;57.53;102688.06;3611252;39;20049;-61
2024/01/10 05:55:25;;;;;;;8.43;4.28;;;;;;;-4.27;58.03;102689.00;3605334;39;20031;-61
2024/01/10 05:57:51;;;;;;;8.68;4.00;;;;;;;-4.43;57.57;102664.06;3612058;39;20066;-61
2024/01/10 06:00:16;;;;;;;7.13;3.95;;;;;;;-4.30;58.31;102681.06;3610908;39;20437;-61
2024/01/10 06:02:43;;;;;;;8.40;4.25;;;;;;;-4.30;57.96;102673.19;3611035;39;21224;-61
2024/01/10 06:05:11;;;;;;;8.80;4.22;;;;;;;-4.37;58.11;102665.09;3609694;39;20268;-61
2024/01/10 06:07:38;;;;;;;7.15;4.05;;;;;;;-4.35;58.12;102674.75;3609846;39;20054;-61
2024/01/10 06:10:05;;;;;;;6.65;4.07;;;;;;;-4.32;58.17;102680.09;3612158;39;20338;-61
2024/01/10 06:12:31;;;;;;;9.38;4.43;;;;;;;-4.33;58.52;102680.97;3612117;39;20335;-61
2024/01/10 06:14:57;;;;;;;8.95;4.05;;;;;;;-4.35;58.54;102671.25;3612126;39;20123;-61
2024/01/10 06:17:23;;;;;;;6.53;3.60;;;;;;;-4.37;58.71;102683.47;3609339;39;20054;-61
2024/01/10 06:19:50;;;;;;;7.88;3.97;;;;;;;-4.38;58.53;102673.78;3610997;39;20311;-61
2024/01/10 06:22:16;;;;;;;8.50;3.92;;;;;;;-4.40;59.07;102675.50;3610568;39;20051;-61
2024/01/10 06:24:46;;;;;;;10.55;4.40;;;;;;;-4.42;58.82;102667.56;3611664;39;20051;-63
2024/01/10 06:27:12;;;;;;;7.22;3.72;;;;;;;-4.43;58.53;102665.78;3610495;39;20078;-63
2024/01/10 06:29:38;;;;;;;6.63;4.03;;;;;;;-4.53;58.96;102654.13;3609658;39;20081;-61
2024/01/10 06:32:07;;;;;;;7.40;3.88;;;;;;;-4.51;58.83;102651.53;3611387;39;20054;-61
2024/01/10 06:34:33;;;;;;;8.48;4.75;;;;;;;-4.52;59.13;102661.16;3609734;39;20051;-61
2024/01/10 06:36:59;;;;;;;8.73;4.90;;;;;;;-4.45;58.88;102672.72;3601490;39;20356;-61
2024/01/10 06:39:25;;;;;;;6.43;4.18;;;;;;;-4.47;59.11;102677.94;3611321;39;20050;-61
2024/01/10 06:41:51;;;;;;;8.07;4.75;;;;;;;-4.50;59.16;102677.84;3610412;39;20047;-61
2024/01/10 06:44:19;;;;;;;6.63;4.30;;;;;;;-4.70;59.27;102645.75;3601009;39;20354;-61
2024/01/10 06:46:45;;;;;;;9.10;4.72;;;;;;;-4.47;59.88;102672.69;3610176;39;20307;-61
2024/01/10 06:49:12;;;;;;;6.70;4.15;;;;;;;-4.49;59.30;102666.50;3611108;39;20044;-61
2024/01/10 06:51:38;;;;;;;10.77;3.97;;;;;;;-4.48;59.97;102672.63;3611202;39;20050;-61
2024/01/10 06:54:04;;;;;;;11.23;4.35;;;;;;;-4.56;59.47;102661.91;3612089;39;20402;-61
2024/01/10 06:56:33;;;;;;;8.73;4.45;;;;;;;-4.49;59.87;102678.72;3610424;39;20051;-60
2024/01/10 06:59:00;;;;;;;10.02;4.38;;;;;;;-4.48;59.80;102677.88;3599924;39;20051;-61
2024/01/10 07:01:27;;;;;;;6.63;3.85;;;;;;;-4.47;59.64;102667.44;3610893;39;20059;-61
2024/01/10 07:03:57;;;;;;;7.30;4.15;;;;;;;-4.45;59.17;102676.22;3610224;39;20075;-61
2024/01/10 07:06:23;;;;;;;7.88;4.32;;;;;;;-4.46;59.50;102676.19;3609999;39;20088;-61
2024/01/10 07:08:50;;;;;;;9.23;4.20;;;;;;;-4.47;59.88;102680.56;3609704;39;20415;-61
2024/01/10 07:11:17;;;;;;;7.78;4.53;;;;;;;-4.46;60.15;102681.44;3611384;39;20409;-61
2024/01/10 07:13:43;;;;;;;10.57;4.90;;;;;;;-4.70;59.69;102645.75;3600685;39;20060;-61
2024/01/10 07:16:09;;;;;;;9.00;4.70;;;;;;;-4.47;60.08;102680.56;3610571;39;20302;-61
2024/01/10 07:18:35;;;;;;;10.13;5.20;;;;;;;-4.46;60.16;102684.06;3610079;39;20480;-60
2024/01/10 07:21:01;;;;;;;8.93;5.13;;;;;;;-4.47;59.49;102675.31;3613002;39;20055;-61
2024/01/10 07:23:27;;;;;;;8.10;4.47;;;;;;;-4.56;59.93;102659.28;3610775;39;20055;-62
2024/01/10 07:25:53;;;;;;;8.65;5.20;;;;;;;-4.49;59.44;102665.63;3613650;39;20055;-62
2024/01/10 07:28:19;;;;;;;7.43;4.47;;;;;;;-4.58;59.77;102663.59;3611500;39;20349;-62
2024/01/10 07:30:46;;;;;;;7.47;4.40;;;;;;;-4.83;59.68;102624.34;3613168;39;20140;-62
2024/01/10 07:33:12;;;;;;;7.10;4.35;;;;;;;-4.60;59.97;102664.38;3615340;39;20083;-62
2024/01/10 07:35:38;;;;;;;11.23;5.35;;;;;;;-4.78;60.08;102642.03;3613635;39;20046;-62
2024/01/10 07:38:08;;;;;;;8.30;5.05;;;;;;;-4.59;60.02;102677.56;3612271;39;20058;-62
2024/01/10 07:40:35;;;;;;;8.88;5.25;;;;;;;-4.54;59.76;102665.47;3611582;39;20492;-62
2024/01/10 07:43:00;;;;;;;9.52;4.78;;;;;;;-4.56;59.84;102664.53;3612407;39;20522;-62
2024/01/10 07:45:27;;;;;;;10.57;4.50;;;;;;;-4.54;59.98;102665.47;3612854;39;20066;-62
2024/01/10 07:47:52;;;;;;;11.80;5.28;;;;;;;-4.53;59.91;102664.63;3611459;39;20272;-62
2024/01/10 07:50:19;;;;;;;7.78;4.40;;;;;;;-4.51;59.84;102662.94;3612785;39;20085;-62
2024/01/10 07:52:46;;;;;;;7.38;4.47;;;;;;;-4.53;59.85;102661.13;3611858;39;20404;-62
2024/01/10 07:55:12;;;;;;;8.55;4.60;;;;;;;-4.54;60.16;102667.19;3612664;39;20409;-63
2024/01/10 07:57:38;;;;;;;8.30;4.40;;;;;;;-4.52;59.82;102666.41;3611904;39;20031;-62
2024/01/10 08:00:10;;;;;;;8.45;5.00;;;;;;;-4.53;60.05;102664.63;3613033;39;20094;-62
2024/01/10 08:02:39;;;;;;;9.00;5.47;;;;;;;-4.50;60.54;102675.22;3610118;39;20396;-62
2024/01/10 08:05:09;;;;;;;9.07;5.32;;;;;;;-4.45;60.72;102673.59;3610462;39;20055;-63
2024/01/10 08:07:39;;;;;;;11.15;5.45;;;;;;;-4.41;60.43;102676.31;3607898;39;20119;-62
2024/01/10 08:10:10;;;;;;;9.35;5.07;;;;;;;-4.39;60.75;102678.16;3611824;39;20078;-63
2024/01/10 08:12:38;;;;;;;12.05;5.28;;;;;;;-4.61;60.44;102631.13;3610313;39;20066;-62
2024/01/10 08:15:06;;;;;;;8.77;5.40;;;;;;;-4.34;60.43;102684.44;3610371;39;20124;-62
2024/01/10 08:17:32;;;;;;;9.38;5.32;;;;;;;-4.31;59.64;102684.53;3611421;39;20051;-62
2024/01/10 08:20:00;;;;;;;8.00;5.05;;;;;;;-4.28;59.35;102686.34;3610304;39;20103;-62
2024/01/10 08:22:25;;;;;;;9.68;5.10;;;;;;;-4.20;59.79;102685.72;3611907;39;20147;-62
2024/01/10 08:24:51;;;;;;;10.93;5.70;;;;;;;-4.17;59.68;102689.28;3609686;39;20413;-63
2024/01/10 08:27:17;;;;;;;12.10;5.03;;;;;;;-4.13;58.98;102680.63;3612103;39;20071;-63
2024/01/10 08:29:42;;;;;;;8.68;4.45;;;;;;;-4.14;59.44;102681.50;3610431;39;20391;-62
2024/01/10 08:32:08;;;;;;;8.32;5.22;;;;;;;-4.22;59.06;102665.50;3612843;39;20070;-63
2024/01/10 08:34:33;;;;;;;9.65;4.75;;;;;;;-4.05;59.41;102692.25;3610385;39;20073;-62
2024/01/10 08:36:59;;;;;;;8.55;5.47;;;;;;;-4.02;58.73;102690.63;3609634;39;20450;-62
2024/01/10 08:39:28;;;;;;;10.68;5.47;;;;;;;-4.17;58.89;102658.66;3611852;39;20394;-63
2024/01/10 08:41:53;;;;;;;13.93;5.82;;;;;;;-4.03;58.67;102673.09;3608546;39;20058;-62
2024/01/10 08:44:19;;;;;;;10.32;5.65;;;;;;;-3.97;58.31;102688.97;3610511;39;20050;-63
2024/01/10 08:46:45;;;;;;;11.93;5.78;;;;;;;-3.93;59.00;102692.63;3611320;39;20233;-63
2024/01/10 08:49:11;;;;;;;10.18;5.68;;;;;;;-3.86;58.43;102688.41;3610440;39;20476;-63
2024/01/10 08:51:37;;;;;;;8.35;4.95;;;;;;;-3.80;58.51;102696.47;3610711;39;20061;-63
2024/01/10 08:54:03;;;;;;;11.90;5.72;;;;;;;-4.32;58.11;102595.22;3611131;39;20070;-62
2024/01/10 08:56:29;;;;;;;10.85;5.15;;;;;;;-3.69;57.89;102694.13;3611744;39;20159;-62
2024/01/10 08:58:54;;;;;;;9.52;5.30;;;;;;;-3.63;57.27;102689.91;3612160;39;20473;-63
2024/01/10 09:01:20;;;;;;;14.00;5.88;;;;;;;-3.54;57.27;102697.16;3609952;39;20471;-63
2024/01/10 09:03:46;;;;;;;9.00;5.68;;;;;;;-3.47;56.89;102695.56;3610621;39;20932;-65
2024/01/10 09:06:12;;;;;;;11.10;5.20;;;;;;;-3.43;56.45;102705.31;3613254;39;20066;-62
2024/01/10 09:08:39;;;;;;;8.80;5.13;;;;;;;-3.31;55.63;102693.38;3612159;39;20106;-62
2024/01/10 09:11:04;;;;;;;10.52;5.50;;;;;;;-3.28;56.29;102697.81;3608347;39;20319;-62
2024/01/10 09:13:30;;;;;;;11.52;6.13;;;;;;;-3.24;55.99;102689.16;3609781;39;20059;-62
2024/01/10 09:15:56;;;;;;;10.10;5.10;;;;;;;-3.17;56.08;102687.56;3610798;39;20055;-64
2024/01/10 09:18:22;;;;;;;9.45;5.53;;;;;;;-3.06;55.70;102692.25;3611748;39;20039;-62
2024/01/10 09:20:48;;;;;;;14.30;6.05;;;;;;;-3.00;54.93;102695.88;3608832;39;20059;-62
2024/01/10 09:23:14;;;;;;;9.23;5.43;;;;;;;-3.07;55.06;102674.69;3612115;39;20069;-62
2024/01/10 09:25:40;;;;;;;9.23;5.82;;;;;;;-2.87;54.54;102700.56;3600138;39;20051;-64
2024/01/10 09:28:05;;;;;;;10.25;6.20;;;;;;;-2.95;54.16;102671.47;3606884;39;20061;-64
2024/01/10 09:30:31;;;;;;;11.15;6.25;;;;;;;-2.84;53.99;102691.00;3611395;39;20059;-64
2024/01/10 09:32:57;;;;;;;9.65;5.60;;;;;;;-2.71;53.63;102702.72;3612751;39;20395;-64
2024/01/10 09:35:23;;;;;;;12.70;6.47;;;;;;;-2.64;53.77;102701.09;3611764;39;20380;-64
2024/01/10 09:37:49;;;;;;;13.15;6.82;;;;;;;-2.60;53.56;102695.97;3610666;39;20082;-64
2024/01/10 09:40:16;;;;;;;11.02;5.70;;;;;;;-2.49;52.86;102704.09;3610013;39;20322;-63
2024/01/10 09:42:44;;;;;;;12.75;6.50;;;;;;;-2.43;52.34;102703.34;3610177;39;20053;-64
2024/01/10 09:45:12;;;;;;;13.32;6.53;;;;;;;-2.36;52.79;102702.59;3610233;39;20040;-63
2024/01/10 09:47:42;;;;;;;15.32;6.63;;;;;;;-2.26;52.77;102706.31;3609179;39;20043;-63
2024/01/10 09:50:10;;;;;;;13.90;7.07;;;;;;;-2.18;52.28;102704.75;3609718;39;20086;-63
2024/01/10 09:53:08;;;;;;;12.95;6.82;;;;;;;-2.04;51.63;102707.66;3610690;39;20054;-63
2024/01/10 09:55:36;;;;;;;12.77;6.85;;;;;;;-1.94;50.75;102709.63;3605402;39;20059;-64
2024/01/10 09:58:06;;;;;;;12.00;6.45;;;;;;;-1.83;51.28;102716.00;3607923;39;20102;-63
2024/01/10 10:00:35;;;;;;;10.30;6.47;;;;;;;-1.95;51.14;102665.69;3608397;39;20075;-63
2024/01/10 10:03:04;;;;;;;15.00;6.85;;;;;;;-1.52;51.33;102719.22;3607454;39;20334;-63
2024/01/10 10:05:34;;;;;;;11.55;6.35;;;;;;;-1.79;50.32;102632.59;3611156;39;20051;-63
2024/01/10 10:07:59;;;;;;;12.82;6.53;;;;;;;-1.09;49.15;102715.59;3609995;39;20051;-63
2024/01/10 10:10:26;;;;;;;12.57;6.25;;;;;;;-0.95;49.73;102702.63;3609576;39;20058;-63
2024/01/10 10:12:52;;;;;;;13.75;6.57;;;;;;;-0.96;48.66;102677.06;3607499;39;20335;-63
2024/01/10 10:15:27;;;;;;;14.00;7.50;;;;;;;-0.62;48.28;102701.34;3609139;39;20058;-64
2024/01/10 10:17:54;;;;;;;12.45;6.88;;;;;;;-0.41;48.33;102706.97;3601481;39;20143;-63
2024/01/10 10:20:26;;;;;;;12.95;6.85;;;;;;;-0.20;47.07;102702.81;3609702;39;20050;-64
2024/01/10 10:23:06;;;;;;;14.98;7.70;;;;;;;-0.01;47.46;102708.34;3608428;39;20049;-64
2024/01/10 10:25:42;;;;;;;12.35;7.07;;;;;;;0.16;45.73;102705.91;3610578;39;20062;-64
2024/01/10 10:28:08;;;;;;;13.85;7.18;;;;;;;0.35;46.74;102706.09;3602722;39;20055;-64
2024/01/10 10:30:34;;;;;;;13.57;7.25;;;;;;;0.53;45.90;102705.41;3608702;39;20055;-64
2024/01/10 10:33:03;;;;;;;12.40;7.05;;;;;;;0.71;45.81;102694.13;3608422;39;20307;-64
2024/01/10 10:35:28;;;;;;;15.15;7.35;;;;;;;0.81;44.92;102696.84;3611260;39;20046;-64
2024/01/10 10:37:54;;;;;;;15.68;6.82;;;;;;;1.04;44.17;102693.50;3601719;39;20122;-64
2024/01/10 10:40:21;;;;;;;13.35;7.07;;;;;;;1.14;44.30;102679.44;3611639;39;20055;-65
2024/01/10 10:42:55;;;;;;;15.13;8.07;;;;;;;1.03;44.05;102631.72;3607003;39;20062;-65
2024/01/10 10:45:25;;;;;;;14.20;7.97;;;;;;;1.46;43.41;102676.13;3607947;39;20066;-65
2024/01/10 10:48:00;;;;;;;12.55;6.60;;;;;;;1.58;43.01;102669.09;3608583;39;20113;-65
2024/01/10 10:50:34;;;;;;;11.90;7.18;;;;;;;1.85;43.67;102678.09;3610738;39;20099;-65
2024/01/10 10:53:03;;;;;;;14.15;7.70;;;;;;;1.81;41.82;102663.06;3609146;39;20061;-65
2024/01/10 10:55:31;;;;;;;14.52;7.93;;;;;;;2.02;42.73;102684.31;3609217;39;20059;-65
2024/01/10 10:57:59;;;;;;;12.52;7.63;;;;;;;2.17;41.40;102675.53;3607536;39;20063;-66
2024/01/10 11:00:27;;;;;;;15.43;7.20;;;;;;;2.29;41.77;102677.34;3607243;39;20055;-66
2024/01/10 11:02:57;;;;;;;12.73;7.60;;;;;;;2.42;41.25;102668.53;3606859;39;20055;-66
2024/01/10 11:05:24;;;;;;;13.68;7.20;;;;;;;2.27;40.20;102613.66;3608448;39;20062;-66
2024/01/10 11:07:52;;;;;;;14.35;7.72;;;;;;;2.79;40.59;102679.16;3608536;39;20051;-66
2024/01/10 11:10:27;;;;;;;15.05;7.50;;;;;;;2.95;39.76;102674.72;3610990;39;20043;-66
2024/01/10 11:13:24;;;;;;;15.07;8.15;;;;;;;3.18;39.43;102675.63;3607992;39;20063;-66
2024/01/10 11:16:40;;;;;;;16.92;8.30;;;;;;;3.20;38.50;102667.63;3603871;39;20031;-66
2024/01/10 11:19:17;;;;;;;13.05;7.28;;;;;;;3.35;39.21;102666.72;3605540;39;20087;-66
2024/01/10 11:22:10;;;;;;;12.13;7.40;;;;;;;3.47;38.57;102669.34;3608090;39;20058;-66
2024/01/10 11:24:36;;;;;;;14.10;7.10;;;;;;;3.54;38.33;102657.81;3609318;39;20070;-66